Time;durP1;ratioP1;P1;durP2;ratioP2;P2;SDS_P1;SDS_P2;PMS_P1;PMS_P2;Temp;Humidity;BMP_temperature;BMP_pressure;BME280_temperature;BME280_humidity;BME280_pressure;Samples;Min_cycle;Max_cycle;Signal;HPM_P1;HPM_P2
2021/08/11 00:01:01;;;;;;;24.83;14.13;;;15.30;99.90;;;;;;4439387;32;20352;-71
2021/08/11 00:03:28;;;;;;;26.70;15.83;;;15.30;99.90;;;;;;4440460;32;20149;-71
2021/08/11 00:05:55;;;;;;;23.63;15.40;;;15.30;99.90;;;;;;4439605;32;20488;-71
2021/08/11 00:08:22;;;;;;;25.97;15.10;;;15.30;99.90;;;;;;4440362;32;20421;-71
2021/08/11 00:10:49;;;;;;;22.10;13.87;;;15.30;99.90;;;;;;4440330;32;20134;-72
2021/08/11 00:13:16;;;;;;;21.70;14.30;;;15.30;99.90;;;;;;4439450;32;20431;-72
2021/08/11 00:15:43;;;;;;;24.23;13.93;;;15.40;99.90;;;;;;4439371;32;20179;-72
2021/08/11 00:18:09;;;;;;;22.43;13.57;;;15.40;99.90;;;;;;4440626;32;20194;-72
2021/08/11 00:20:36;;;;;;;25.13;13.87;;;15.40;99.90;;;;;;4438644;32;20161;-72
2021/08/11 00:23:03;;;;;;;28.10;15.40;;;15.50;99.90;;;;;;4439740;32;20429;-71
2021/08/11 00:25:30;;;;;;;29.90;16.27;;;15.40;99.90;;;;;;4439613;32;20397;-71
2021/08/11 00:27:57;;;;;;;31.53;16.13;;;15.40;99.90;;;;;;4439146;32;20155;-71
2021/08/11 00:30:24;;;;;;;34.47;16.67;;;15.50;99.90;;;;;;4437702;32;20203;-71
2021/08/11 00:32:50;;;;;;;32.60;16.03;;;15.50;99.90;;;;;;4438519;32;20509;-71
2021/08/11 00:35:18;;;;;;;31.47;15.70;;;15.50;99.90;;;;;;4439777;32;20295;-71
2021/08/11 00:37:45;;;;;;;34.00;16.43;;;15.50;99.90;;;;;;4440141;32;20408;-71
2021/08/11 00:40:13;;;;;;;28.07;15.87;;;15.50;99.90;;;;;;4439079;32;20127;-72
2021/08/11 00:42:39;;;;;;;32.43;16.70;;;15.50;99.90;;;;;;4439805;32;20142;-73
2021/08/11 00:45:07;;;;;;;29.63;16.83;;;15.50;99.90;;;;;;4440184;32;20165;-70
2021/08/11 00:47:38;;;;;;;30.40;16.23;;;15.50;99.90;;;;;;4438668;32;20161;-72
2021/08/11 00:50:06;;;;;;;27.33;15.73;;;15.60;99.90;;;;;;4440386;32;20130;-72
2021/08/11 00:52:33;;;;;;;27.23;15.63;;;15.60;99.90;;;;;;4438432;32;20473;-72
2021/08/11 00:55:01;;;;;;;27.43;16.33;;;15.60;99.90;;;;;;4439454;32;20196;-72
2021/08/11 00:57:31;;;;;;;29.40;16.53;;;15.60;99.90;;;;;;4439677;32;20193;-70
2021/08/11 00:59:59;;;;;;;26.33;15.37;;;15.60;99.90;;;;;;4439375;32;20184;-72
2021/08/11 01:02:26;;;;;;;30.40;16.60;;;15.70;99.90;;;;;;4440010;32;20166;-72
2021/08/11 01:04:58;;;;;;;28.93;16.40;;;15.70;99.90;;;;;;4438066;32;20127;-72
2021/08/11 01:07:27;;;;;;;27.33;16.13;;;15.70;99.90;;;;;;4439398;32;20186;-73
2021/08/11 01:09:55;;;;;;;26.90;16.30;;;15.70;99.90;;;;;;4438933;32;20332;-71
2021/08/11 01:12:26;;;;;;;30.13;16.80;;;15.70;99.90;;;;;;4442798;32;20344;-72
2021/08/11 01:14:54;;;;;;;31.73;17.20;;;15.70;99.90;;;;;;4442539;32;20127;-72
2021/08/11 01:17:23;;;;;;;30.83;17.80;;;15.70;99.90;;;;;;4442926;32;20134;-72
2021/08/11 01:19:50;;;;;;;29.70;17.83;;;15.80;99.90;;;;;;4442626;32;20126;-73
2021/08/11 01:22:39;;;;;;;29.73;18.00;;;15.80;99.90;;;;;;4442644;32;20143;-73
2021/08/11 01:25:18;;;;;;;30.03;18.50;;;15.80;99.90;;;;;;4442584;32;20146;-72
2021/08/11 01:28:09;;;;;;;28.23;18.47;;;15.80;99.90;;;;;;4441016;32;20146;-72
2021/08/11 01:30:47;;;;;;;25.97;17.03;;;15.80;99.90;;;;;;4440809;32;20201;-72
2021/08/11 01:33:46;;;;;;;27.77;17.50;;;15.80;99.90;;;;;;4441534;32;20401;-72
2021/08/11 01:36:31;;;;;;;25.80;17.37;;;15.90;99.90;;;;;;4440745;32;20131;-72
2021/08/11 01:39:01;;;;;;;26.87;17.30;;;15.90;99.90;;;;;;4440890;32;20179;-73
2021/08/11 01:41:33;;;;;;;28.73;18.67;;;15.90;99.90;;;;;;4440451;32;20187;-73
2021/08/11 01:44:01;;;;;;;28.03;17.40;;;15.90;99.90;;;;;;4442517;32;20127;-73
2021/08/11 01:46:30;;;;;;;27.63;17.37;;;15.90;99.90;;;;;;4442632;32;20460;-73
2021/08/11 01:49:00;;;;;;;27.60;17.67;;;15.90;99.90;;;;;;4441252;32;20196;-74
2021/08/11 01:51:28;;;;;;;27.20;18.07;;;16.00;99.90;;;;;;4441877;32;20181;-73
2021/08/11 01:53:55;;;;;;;29.47;18.77;;;16.00;99.90;;;;;;4440667;32;20175;-73
2021/08/11 01:56:22;;;;;;;32.30;19.63;;;16.00;99.90;;;;;;4441236;32;20445;-73
2021/08/11 01:58:50;;;;;;;32.50;19.40;;;16.00;99.90;;;;;;4441900;32;20150;-73
2021/08/11 02:01:17;;;;;;;30.93;19.30;;;16.00;99.90;;;;;;4442323;32;20158;-73
2021/08/11 02:03:44;;;;;;;30.53;19.77;;;15.90;99.90;;;;;;4441452;32;20150;-73
2021/08/11 02:06:13;;;;;;;32.90;20.23;;;16.00;99.90;;;;;;4442161;32;20135;-73
2021/08/11 02:08:43;;;;;;;31.23;19.10;;;15.90;99.90;;;;;;4441408;32;20246;-73
2021/08/11 02:11:12;;;;;;;32.93;20.27;;;15.90;99.90;;;;;;4441292;32;20195;-73
2021/08/11 02:13:39;;;;;;;34.43;21.30;;;15.90;99.90;;;;;;4440332;32;20123;-73
2021/08/11 02:16:06;;;;;;;34.17;21.47;;;16.00;99.90;;;;;;4442129;32;20162;-73
2021/08/11 02:18:33;;;;;;;32.50;20.27;;;15.90;99.90;;;;;;4440131;32;20221;-73
2021/08/11 02:21:00;;;;;;;32.70;20.90;;;15.90;99.90;;;;;;4440089;32;20127;-73
2021/08/11 02:23:27;;;;;;;32.93;21.53;;;16.00;99.90;;;;;;4440870;32;20451;-73
2021/08/11 02:26:02;;;;;;;35.53;22.27;;;16.00;99.90;;;;;;4440062;32;20528;-73
2021/08/11 02:28:37;;;;;;;32.70;20.73;;;16.00;99.90;;;;;;4440683;32;20161;-73
2021/08/11 02:31:16;;;;;;;34.40;21.67;;;16.00;99.90;;;;;;4439953;32;20153;-73
2021/08/11 02:33:53;;;;;;;35.57;21.57;;;16.00;99.90;;;;;;4439863;32;20122;-73
2021/08/11 02:36:29;;;;;;;32.93;21.70;;;16.00;99.90;;;;;;4441916;32;20134;-74
2021/08/11 02:39:04;;;;;;;31.13;20.73;;;15.90;99.90;;;;;;4440918;32;20141;-73
2021/08/11 02:41:36;;;;;;;33.53;21.53;;;15.90;99.90;;;;;;4441455;32;20498;-73
2021/08/11 02:44:16;;;;;;;36.47;22.60;;;15.90;99.90;;;;;;4440740;32;20127;-73
2021/08/11 02:46:44;;;;;;;33.97;22.00;;;16.00;99.90;;;;;;4440639;32;20176;-73
2021/08/11 02:49:19;;;;;;;33.27;21.63;;;15.90;99.90;;;;;;4439849;32;20131;-74
2021/08/11 02:51:46;;;;;;;32.83;21.90;;;15.90;99.90;;;;;;4440184;32;20179;-74
2021/08/11 02:54:18;;;;;;;36.60;22.60;;;15.90;99.90;;;;;;4441247;32;20197;-74
2021/08/11 02:56:47;;;;;;;36.80;22.73;;;15.80;99.90;;;;;;4441428;32;20135;-73
2021/08/11 02:59:15;;;;;;;36.37;23.43;;;15.80;99.90;;;;;;4439056;32;20157;-74
2021/08/11 03:01:42;;;;;;;30.83;22.13;;;15.80;99.90;;;;;;4439687;32;20180;-74
2021/08/11 03:04:13;;;;;;;34.20;21.80;;;15.80;99.90;;;;;;4439814;32;20180;-74
2021/08/11 03:06:40;;;;;;;36.90;22.77;;;15.80;99.90;;;;;;4439004;32;20123;-74
2021/08/11 03:09:08;;;;;;;34.97;22.83;;;15.80;99.90;;;;;;4441058;32;20158;-74
2021/08/11 03:11:36;;;;;;;36.90;23.53;;;15.80;99.90;;;;;;4440775;32;20135;-74
2021/08/11 03:14:05;;;;;;;39.00;23.07;;;15.70;99.90;;;;;;4439384;32;20389;-73
2021/08/11 03:16:36;;;;;;;36.50;21.70;;;15.60;99.90;;;;;;4439945;32;20184;-73
2021/08/11 03:19:05;;;;;;;35.20;21.23;;;15.60;99.90;;;;;;4425059;32;20123;-74
2021/08/11 03:21:33;;;;;;;34.57;21.23;;;15.60;99.90;;;;;;4425689;32;20166;-73
2021/08/11 03:24:00;;;;;;;39.03;21.90;;;15.50;99.90;;;;;;4439260;32;20166;-73
2021/08/11 03:26:27;;;;;;;33.47;20.50;;;15.50;99.90;;;;;;4440122;32;20162;-73
2021/08/11 03:29:00;;;;;;;30.60;20.63;;;15.40;99.90;;;;;;4439056;32;20158;-73
2021/08/11 03:31:28;;;;;;;35.77;21.30;;;15.40;99.90;;;;;;4440123;32;20209;-73
2021/08/11 03:33:56;;;;;;;36.43;21.43;;;15.40;99.90;;;;;;4440005;32;20424;-74
2021/08/11 03:36:23;;;;;;;35.40;21.93;;;15.40;99.90;;;;;;4440267;32;20175;-73
2021/08/11 03:38:50;;;;;;;34.90;21.33;;;15.30;99.90;;;;;;4440628;32;20392;-73
2021/08/11 03:41:17;;;;;;;35.37;21.97;;;15.40;99.90;;;;;;4440747;32;20279;-73
2021/08/11 03:43:43;;;;;;;38.67;23.47;;;15.40;99.90;;;;;;4438801;32;20544;-73
2021/08/11 03:46:10;;;;;;;35.87;22.87;;;15.40;99.90;;;;;;4440485;32;20411;-73
2021/08/11 03:48:37;;;;;;;39.70;24.00;;;15.30;99.90;;;;;;4438958;32;20491;-73
2021/08/11 03:51:04;;;;;;;37.27;23.27;;;15.30;99.90;;;;;;4440378;32;20195;-73
2021/08/11 03:53:31;;;;;;;36.03;23.67;;;15.30;99.90;;;;;;4438293;32;20166;-73
2021/08/11 03:55:57;;;;;;;41.13;25.07;;;15.30;99.90;;;;;;4440413;32;20174;-73
2021/08/11 03:58:24;;;;;;;39.17;24.73;;;15.30;99.90;;;;;;4439628;32;20146;-73
2021/08/11 04:00:51;;;;;;;38.27;23.97;;;15.20;99.90;;;;;;4438766;32;20126;-72
2021/08/11 04:03:18;;;;;;;42.83;26.27;;;15.30;99.90;;;;;;4439467;32;20131;-73
2021/08/11 04:05:45;;;;;;;43.97;25.67;;;15.30;99.90;;;;;;4440433;32;20127;-73
2021/08/11 04:08:12;;;;;;;44.20;26.20;;;15.30;99.90;;;;;;4439908;32;20484;-73
2021/08/11 04:10:39;;;;;;;44.23;27.47;;;15.30;99.90;;;;;;4439587;32;20150;-72
2021/08/11 04:13:06;;;;;;;50.03;28.73;;;15.30;99.90;;;;;;4440157;32;20131;-72
2021/08/11 04:15:33;;;;;;;47.97;28.37;;;15.30;99.90;;;;;;4438623;32;20153;-72
2021/08/11 04:17:59;;;;;;;53.83;30.60;;;15.30;99.90;;;;;;4440024;32;20502;-74
2021/08/11 04:20:26;;;;;;;56.03;31.37;;;15.20;99.90;;;;;;4439220;32;20180;-73
2021/08/11 04:22:53;;;;;;;57.20;32.30;;;15.30;99.90;;;;;;4439914;32;20147;-73
2021/08/11 04:25:20;;;;;;;59.67;31.70;;;15.30;99.90;;;;;;4439984;32;20153;-73
2021/08/11 04:27:47;;;;;;;56.80;30.60;;;15.30;99.90;;;;;;4438284;32;20150;-72
2021/08/11 04:30:13;;;;;;;55.37;30.40;;;15.40;99.90;;;;;;4438069;32;20139;-73
2021/08/11 04:32:40;;;;;;;52.60;29.27;;;15.40;99.90;;;;;;4438937;32;20149;-73
2021/08/11 04:35:08;;;;;;;51.20;28.90;;;15.40;99.90;;;;;;4438799;32;20172;-73
2021/08/11 04:37:37;;;;;;;53.20;29.47;;;15.40;99.90;;;;;;4439397;32;20286;-73
2021/08/11 04:40:06;;;;;;;54.60;30.63;;;15.40;99.90;;;;;;4438372;32;20457;-73
2021/08/11 04:42:33;;;;;;;59.37;32.37;;;15.40;99.90;;;;;;4438997;32;20138;-72
2021/08/11 04:45:01;;;;;;;60.60;31.93;;;15.40;99.90;;;;;;4439442;32;20134;-72
2021/08/11 04:47:27;;;;;;;63.37;32.80;;;15.30;99.90;;;;;;4441385;32;20138;-72
2021/08/11 04:49:54;;;;;;;71.00;34.00;;;15.30;99.90;;;;;;4442283;32;20131;-72
2021/08/11 04:52:21;;;;;;;66.83;34.03;;;15.30;99.90;;;;;;4442337;32;20135;-73
2021/08/11 04:54:47;;;;;;;68.87;34.30;;;15.30;99.90;;;;;;4442676;32;20162;-73
2021/08/11 04:57:14;;;;;;;67.37;33.53;;;15.40;99.90;;;;;;4441244;32;20127;-73
2021/08/11 04:59:41;;;;;;;64.57;33.77;;;15.50;99.90;;;;;;4443181;32;20179;-73
2021/08/11 05:02:08;;;;;;;68.30;32.73;;;15.60;99.90;;;;;;4442741;32;20158;-72
2021/08/11 05:04:35;;;;;;;61.00;31.90;;;15.60;99.90;;;;;;4442402;32;20134;-73
2021/08/11 05:07:08;;;;;;;52.90;30.03;;;15.70;99.90;;;;;;4442041;32;20480;-73
2021/08/11 05:09:35;;;;;;;49.87;28.57;;;15.70;99.90;;;;;;4442850;32;20230;-73
2021/08/11 05:12:02;;;;;;;50.80;28.27;;;15.80;99.90;;;;;;4441031;32;20130;-73
2021/08/11 05:14:30;;;;;;;46.63;25.83;;;15.80;99.90;;;;;;4442743;32;20135;-73
2021/08/11 05:16:57;;;;;;;49.57;26.97;;;15.70;99.90;;;;;;4441128;32;20169;-73
2021/08/11 05:19:23;;;;;;;47.67;26.50;;;15.80;99.90;;;;;;4441937;32;20145;-74
2021/08/11 05:21:51;;;;;;;44.70;25.50;;;15.80;99.90;;;;;;4440747;32;20161;-73
2021/08/11 05:24:18;;;;;;;49.03;26.57;;;15.70;99.90;;;;;;4442319;32;20157;-73
2021/08/11 05:26:45;;;;;;;47.10;26.50;;;15.70;99.90;;;;;;4442311;32;20138;-74
2021/08/11 05:29:20;;;;;;;40.80;25.47;;;15.70;99.90;;;;;;4441432;32;20427;-73
2021/08/11 05:31:47;;;;;;;42.93;23.87;;;15.60;99.90;;;;;;4441341;32;20126;-73
2021/08/11 05:34:14;;;;;;;46.30;26.17;;;15.60;99.90;;;;;;4442214;32;20172;-74
2021/08/11 05:36:40;;;;;;;49.03;26.97;;;15.50;99.90;;;;;;4440670;32;20130;-73
2021/08/11 05:39:07;;;;;;;48.60;27.30;;;15.50;99.90;;;;;;4442328;32;20127;-73
2021/08/11 05:41:34;;;;;;;51.40;27.97;;;15.50;99.90;;;;;;4440382;32;20131;-74
2021/08/11 05:44:01;;;;;;;53.73;27.60;;;15.60;99.90;;;;;;4441914;32;20246;-74
2021/08/11 05:46:27;;;;;;;45.87;26.33;;;15.80;99.90;;;;;;4442009;32;20146;-73
2021/08/11 05:48:55;;;;;;;45.13;25.07;;;15.80;99.90;;;;;;4441949;32;20127;-73
2021/08/11 05:51:22;;;;;;;42.97;24.00;;;15.90;99.90;;;;;;4440306;32;20460;-72
2021/08/11 05:53:48;;;;;;;40.73;23.10;;;16.00;99.90;;;;;;4441633;32;20507;-73
2021/08/11 05:56:15;;;;;;;39.90;23.50;;;16.00;99.90;;;;;;4441701;32;20157;-73
2021/08/11 05:58:42;;;;;;;36.43;22.67;;;16.20;99.90;;;;;;4440105;32;20347;-73
2021/08/11 06:01:09;;;;;;;36.50;22.03;;;16.30;99.90;;;;;;4441060;32;20527;-74
2021/08/11 06:03:36;;;;;;;35.67;21.40;;;16.40;99.90;;;;;;4440199;32;20131;-75
2021/08/11 06:06:04;;;;;;;34.50;21.90;;;16.50;99.90;;;;;;4442079;32;20168;-74
2021/08/11 06:08:31;;;;;;;36.17;22.33;;;16.60;99.90;;;;;;4442252;32;20151;-75
2021/08/11 06:10:58;;;;;;;37.87;22.27;;;16.60;99.90;;;;;;4441937;32;20150;-75
2021/08/11 06:13:25;;;;;;;33.50;20.93;;;16.60;99.90;;;;;;4441135;32;20153;-75
2021/08/11 06:15:51;;;;;;;31.60;20.33;;;16.70;99.90;;;;;;4441240;32;20155;-75
2021/08/11 06:18:19;;;;;;;31.27;20.13;;;16.50;99.90;;;;;;4441014;32;20130;-74
2021/08/11 06:20:47;;;;;;;36.13;20.57;;;16.60;99.90;;;;;;4441395;32;20139;-72
2021/08/11 06:23:14;;;;;;;33.90;21.53;;;16.60;99.90;;;;;;4439219;32;20146;-73
2021/08/11 06:25:40;;;;;;;33.17;19.87;;;16.80;99.90;;;;;;4440057;32;20130;-73
2021/08/11 06:28:07;;;;;;;32.10;20.53;;;16.60;99.90;;;;;;4439980;32;20159;-72
2021/08/11 06:30:34;;;;;;;32.27;20.87;;;16.60;99.90;;;;;;4439874;32;20178;-73
2021/08/11 06:33:01;;;;;;;33.07;20.93;;;16.70;99.90;;;;;;4441698;32;20476;-73
2021/08/11 06:35:28;;;;;;;29.10;18.27;;;16.80;99.90;;;;;;4441768;32;20130;-74
2021/08/11 06:37:55;;;;;;;32.70;21.83;;;16.80;99.90;;;;;;4440783;32;20135;-74
2021/08/11 06:40:26;;;;;;;33.93;21.03;;;16.90;99.90;;;;;;4439911;32;20149;-74
2021/08/11 06:42:52;;;;;;;29.60;18.80;;;17.00;99.90;;;;;;4439920;32;20487;-75
2021/08/11 06:45:20;;;;;;;36.93;23.67;;;17.00;99.90;;;;;;4440967;32;20122;-75
2021/08/11 06:47:47;;;;;;;30.23;19.77;;;17.10;99.90;;;;;;4441401;32;20131;-75
2021/08/11 06:50:14;;;;;;;31.93;19.70;;;17.20;99.90;;;;;;4439691;32;20122;-75
2021/08/11 06:52:41;;;;;;;44.30;21.60;;;17.30;99.90;;;;;;4441397;32;20130;-75
2021/08/11 06:55:19;;;;;;;31.57;19.30;;;17.40;99.90;;;;;;4441137;32;20490;-75
2021/08/11 06:57:49;;;;;;;30.50;18.90;;;17.50;99.90;;;;;;4440823;32;20417;-75
2021/08/11 07:00:19;;;;;;;25.70;16.23;;;17.70;99.90;;;;;;4440392;32;20182;-75
2021/08/11 07:02:46;;;;;;;22.40;13.97;;;17.90;99.90;;;;;;4440267;32;20153;-73
2021/08/11 07:05:14;;;;;;;23.00;14.00;;;18.00;99.90;;;;;;4441162;32;20179;-74
2021/08/11 07:07:42;;;;;;;22.57;13.33;;;18.10;99.90;;;;;;4440830;32;20127;-73
2021/08/11 07:10:11;;;;;;;21.43;14.00;;;18.10;99.90;;;;;;4439084;32;20468;-73
2021/08/11 07:12:38;;;;;;;19.53;12.77;;;18.10;99.90;;;;;;4439072;32;20131;-73
2021/08/11 07:15:07;;;;;;;23.63;12.87;;;18.20;99.90;;;;;;4439621;32;20521;-73
2021/08/11 07:17:34;;;;;;;18.30;11.43;;;18.30;99.90;;;;;;4438946;32;20126;-73
2021/08/11 07:20:06;;;;;;;16.23;10.40;;;18.30;99.90;;;;;;4440485;32;20203;-73
2021/08/11 07:22:33;;;;;;;20.07;11.50;;;18.30;99.90;;;;;;4440602;32;20131;-74
2021/08/11 07:25:00;;;;;;;18.23;10.67;;;18.50;99.90;;;;;;4439906;32;20222;-73
2021/08/11 07:27:26;;;;;;;13.73;9.40;;;18.50;99.90;;;;;;4440608;32;20127;-73
2021/08/11 07:29:53;;;;;;;19.13;10.57;;;18.60;99.90;;;;;;4438851;32;20169;-73
2021/08/11 07:32:20;;;;;;;14.90;9.50;;;18.80;99.90;;;;;;4438948;32;20235;-72
2021/08/11 07:34:47;;;;;;;15.40;9.90;;;18.90;99.90;;;;;;4440366;32;20409;-72
2021/08/11 07:37:14;;;;;;;18.57;10.00;;;19.00;99.90;;;;;;4436789;32;20135;-74
2021/08/11 07:39:41;;;;;;;18.50;10.20;;;19.00;99.90;;;;;;4437331;32;20142;-76
2021/08/11 07:42:08;;;;;;;17.77;10.63;;;18.90;99.90;;;;;;4433799;32;20208;-75
2021/08/11 07:44:35;;;;;;;16.70;10.17;;;18.90;99.90;;;;;;4436406;32;20146;-74
2021/08/11 07:47:02;;;;;;;18.13;10.20;;;18.80;99.90;;;;;;4432788;32;20135;-73
2021/08/11 07:49:30;;;;;;;19.50;9.93;;;18.80;99.90;;;;;;4431913;32;20134;-74
2021/08/11 07:51:57;;;;;;;17.07;9.17;;;19.00;99.90;;;;;;4434541;32;20407;-74
2021/08/11 07:54:24;;;;;;;13.70;8.57;;;19.00;99.90;;;;;;4432049;32;20614;-73
2021/08/11 07:56:51;;;;;;;13.70;8.63;;;19.00;99.90;;;;;;4431271;32;20203;-72
2021/08/11 07:59:18;;;;;;;15.50;8.70;;;18.90;99.90;;;;;;4426111;32;20159;-73
2021/08/11 08:01:44;;;;;;;15.93;8.90;;;19.00;99.90;;;;;;4439172;32;20219;-71
2021/08/11 08:04:11;;;;;;;13.57;8.50;;;19.10;99.90;;;;;;4431656;32;20158;-74
2021/08/11 08:06:38;;;;;;;16.33;8.43;;;19.30;99.90;;;;;;4426623;32;20147;-73
2021/08/11 08:09:05;;;;;;;12.07;8.60;;;19.40;99.90;;;;;;4425680;32;20157;-74
2021/08/11 08:11:33;;;;;;;15.90;9.70;;;19.50;99.90;;;;;;4434311;32;20151;-73
2021/08/11 08:14:00;;;;;;;13.33;8.30;;;19.70;99.90;;;;;;4436838;32;20189;-73
2021/08/11 08:16:27;;;;;;;14.40;8.93;;;20.00;99.90;;;;;;4440018;32;20142;-73
2021/08/11 08:18:54;;;;;;;12.07;8.30;;;20.50;99.90;;;;;;4438340;32;20143;-73
2021/08/11 08:21:20;;;;;;;13.90;8.80;;;20.80;99.90;;;;;;4438101;32;20182;-73
2021/08/11 08:23:47;;;;;;;10.63;7.57;;;21.20;99.90;;;;;;4435355;32;20489;-74
2021/08/11 08:26:14;;;;;;;11.10;7.43;;;21.90;99.90;;;;;;4435758;32;20157;-73
2021/08/11 08:28:45;;;;;;;10.53;7.10;;;22.20;99.90;;;;;;4432614;32;20413;-73
2021/08/11 08:31:12;;;;;;;10.80;7.30;;;22.40;99.90;;;;;;4437826;32;20480;-74
2021/08/11 08:33:38;;;;;;;9.68;7.53;;;22.70;99.90;;;;;;4436389;32;20175;-73
2021/08/11 08:36:05;;;;;;;10.40;7.35;;;22.80;99.90;;;;;;4436623;32;20180;-75
2021/08/11 08:38:32;;;;;;;10.10;6.90;;;23.20;99.90;;;;;;4437195;32;20476;-75
2021/08/11 08:41:10;;;;;;;8.73;6.40;;;23.90;99.90;;;;;;4432729;32;20200;-76
2021/08/11 08:43:37;;;;;;;8.90;6.95;;;24.60;99.90;;;;;;4429176;32;20138;-74
2021/08/11 08:46:04;;;;;;;10.40;7.10;;;25.10;99.90;;;;;;4427213;32;20165;-74
2021/08/11 08:48:33;;;;;;;10.23;6.32;;;25.10;99.90;;;;;;4433239;32;20460;-75
2021/08/11 08:51:00;;;;;;;10.48;8.13;;;25.00;99.90;;;;;;4436612;32;20222;-74
2021/08/11 08:53:27;;;;;;;11.80;7.55;;;24.20;99.90;;;;;;4439964;32;20160;-74
2021/08/11 08:55:54;;;;;;;10.55;7.15;;;24.00;99.90;;;;;;4438490;32;20146;-74
2021/08/11 08:58:21;;;;;;;9.63;7.10;;;23.90;99.90;;;;;;4435439;32;20155;-74
2021/08/11 09:00:48;;;;;;;8.63;7.10;;;24.20;99.90;;;;;;4439477;32;20138;-76
2021/08/11 09:03:16;;;;;;;9.85;6.87;;;24.60;99.90;;;;;;4431683;32;20404;-74
2021/08/11 09:05:43;;;;;;;8.90;7.20;;;24.90;99.90;;;;;;4437583;32;20146;-74
2021/08/11 09:08:10;;;;;;;10.63;8.00;;;25.20;99.90;;;;;;4433763;32;20497;-72
2021/08/11 09:10:39;;;;;;;10.68;7.45;;;24.60;99.90;;;;;;4433296;32;20460;-72
2021/08/11 09:13:13;;;;;;;9.45;7.07;;;24.70;99.90;;;;;;4438047;32;20191;-71
2021/08/11 09:15:46;;;;;;;8.23;7.03;;;24.80;99.90;;;;;;4438140;32;20146;-73
2021/08/11 09:18:23;;;;;;;7.78;6.32;;;24.70;99.90;;;;;;4434799;32;20185;-72
2021/08/11 09:20:59;;;;;;;7.35;6.53;;;24.70;99.90;;;;;;4434641;32;20147;-72
2021/08/11 09:23:52;;;;;;;7.70;5.95;;;25.00;99.90;;;;;;4439447;32;20138;-73
2021/08/11 09:26:19;;;;;;;8.52;6.05;;;25.00;99.90;;;;;;4438006;32;20439;-74
2021/08/11 09:28:47;;;;;;;6.75;5.65;;;25.00;99.90;;;;;;4435493;32;20163;-74
2021/08/11 09:31:32;;;;;;;8.68;5.78;;;25.00;99.90;;;;;;4438100;32;20408;-74
2021/08/11 09:34:06;;;;;;;9.18;5.87;;;25.30;99.90;;;;;;4440562;32;20374;-72
2021/08/11 09:36:48;;;;;;;6.22;5.03;;;25.60;99.90;;;;;;4437865;32;20154;-72
2021/08/11 09:39:16;;;;;;;8.48;5.47;;;25.20;99.90;;;;;;4429614;32;20481;-72
2021/08/11 09:42:03;;;;;;;5.57;4.70;;;25.10;99.90;;;;;;4426842;32;20495;-73
2021/08/11 09:44:30;;;;;;;7.78;4.87;;;25.10;99.90;;;;;;4436372;32;20204;-74
2021/08/11 09:47:11;;;;;;;6.93;4.70;;;25.20;99.90;;;;;;4440557;32;20464;-74
2021/08/11 09:49:38;;;;;;;6.12;4.40;;;25.20;99.90;;;;;;4441918;32;20134;-74
2021/08/11 09:52:05;;;;;;;7.12;4.20;;;24.90;99.90;;;;;;4442387;32;20122;-70
2021/08/11 09:54:33;;;;;;;5.50;3.90;;;25.00;99.90;;;;;;4442124;32;20146;-70
2021/08/11 09:57:00;;;;;;;6.50;4.40;;;24.60;99.90;;;;;;4440209;32;20194;-70
2021/08/11 09:59:27;;;;;;;6.90;3.87;;;24.50;99.90;;;;;;4440340;32;20151;-71
2021/08/11 10:02:15;;;;;;;6.53;3.95;;;24.80;99.90;;;;;;4436033;32;20150;-73
2021/08/11 10:04:42;;;;;;;8.27;4.65;;;25.50;99.90;;;;;;4440592;32;20164;-72
2021/08/11 10:07:09;;;;;;;5.40;4.03;;;25.60;99.90;;;;;;4442253;32;20126;-72
2021/08/11 10:09:40;;;;;;;5.53;3.83;;;25.60;99.90;;;;;;4439741;32;20187;-71
2021/08/11 10:12:25;;;;;;;3.97;3.30;;;25.40;99.90;;;;;;4439969;32;20127;-71
2021/08/11 10:14:53;;;;;;;5.35;3.83;;;25.50;99.90;;;;;;4442077;32;20126;-71
2021/08/11 10:17:20;;;;;;;5.15;3.17;;;25.40;99.90;;;;;;4440236;32;20179;-72
2021/08/11 10:19:49;;;;;;;5.60;3.10;;;25.60;99.90;;;;;;4440902;32;20197;-72
2021/08/11 10:22:20;;;;;;;5.62;3.00;;;25.60;99.90;;;;;;4440165;32;20171;-73
2021/08/11 10:24:49;;;;;;;5.60;3.05;;;25.80;99.90;;;;;;4441379;32;20160;-72
2021/08/11 10:27:17;;;;;;;4.53;2.90;;;25.30;99.90;;;;;;4441082;32;20187;-72
2021/08/11 10:29:47;;;;;;;5.70;3.30;;;25.60;99.90;;;;;;4439238;32;20196;-72
2021/08/11 10:32:15;;;;;;;4.07;3.20;;;26.00;99.90;;;;;;4436123;32;20207;-73
2021/08/11 10:34:47;;;;;;;4.75;3.20;;;26.60;99.90;;;;;;4424738;32;20154;-72
2021/08/11 10:37:14;;;;;;;4.20;3.20;;;27.40;99.90;;;;;;4426256;32;20127;-72
2021/08/11 10:39:41;;;;;;;7.18;3.33;;;27.50;99.90;;;;;;4426232;32;20132;-72
2021/08/11 10:42:14;;;;;;;3.65;2.90;;;28.00;99.90;;;;;;4425936;32;20120;-72
2021/08/11 10:44:43;;;;;;;4.05;2.87;;;28.10;98.90;;;;;;4430180;32;20254;-73
2021/08/11 10:47:11;;;;;;;6.85;3.10;;;28.10;97.60;;;;;;4439355;32;20494;-72
2021/08/11 10:49:58;;;;;;;4.80;2.75;;;28.10;99.00;;;;;;4439534;32;20201;-73
2021/08/11 10:52:25;;;;;;;3.35;2.62;;;28.50;97.90;;;;;;4439808;32;20375;-72
2021/08/11 10:54:53;;;;;;;5.43;2.72;;;28.70;97.90;;;;;;4440349;32;20214;-73
2021/08/11 10:57:38;;;;;;;5.12;2.60;;;28.90;95.10;;;;;;4438875;32;20123;-73
2021/08/11 11:00:06;;;;;;;5.30;2.30;;;29.40;92.70;;;;;;4440911;32;20147;-72
2021/08/11 11:02:40;;;;;;;2.58;2.15;;;28.80;90.50;;;;;;4439243;32;20157;-72
2021/08/11 11:05:23;;;;;;;5.28;2.28;;;28.30;90.50;;;;;;4439061;32;20131;-72
2021/08/11 11:08:12;;;;;;;4.32;2.55;;;28.20;91.70;;;;;;4430829;32;20387;-72
2021/08/11 11:10:43;;;;;;;4.90;2.33;;;28.10;90.70;;;;;;4432346;32;20173;-73
2021/08/11 11:13:32;;;;;;;2.85;2.40;;;27.50;92.80;;;;;;4423120;32;20139;-72
2021/08/11 11:16:03;;;;;;;5.45;2.50;;;27.10;92.50;;;;;;4431384;32;20146;-73
2021/08/11 11:18:30;;;;;;;2.70;2.30;;;26.80;93.20;;;;;;4439005;32;20134;-71
2021/08/11 11:20:57;;;;;;;4.05;2.45;;;26.60;94.30;;;;;;4440892;32;20131;-72
2021/08/11 11:23:32;;;;;;;4.28;2.50;;;26.50;95.30;;;;;;4440812;32;20382;-71
2021/08/11 11:26:04;;;;;;;2.80;2.30;;;27.10;94.70;;;;;;4440027;32;20218;-71
2021/08/11 11:28:51;;;;;;;3.53;2.30;;;27.10;93.40;;;;;;4439308;32;20207;-72
2021/08/11 11:31:31;;;;;;;3.95;2.78;;;27.50;91.50;;;;;;4439920;32;20150;-72
2021/08/11 11:34:30;;;;;;;2.45;2.10;;;27.40;90.90;;;;;;4439000;32;20131;-73
2021/08/11 11:36:58;;;;;;;3.15;2.15;;;27.70;90.40;;;;;;4439254;32;20126;-74
2021/08/11 11:39:24;;;;;;;3.37;2.17;;;27.70;91.20;;;;;;4440401;32;20182;-73
2021/08/11 11:42:22;;;;;;;4.80;2.58;;;27.60;90.30;;;;;;4439743;32;20168;-72
2021/08/11 11:45:02;;;;;;;3.33;2.50;;;27.50;91.50;;;;;;4440121;32;20630;-72
2021/08/11 11:47:41;;;;;;;3.20;2.40;;;28.00;89.80;;;;;;4438953;32;20182;-73
2021/08/11 11:52:53;;;;;;;5.03;2.80;;;27.80;91.20;;;;;;4439998;32;20142;-73
2021/08/11 11:55:27;;;;;;;3.33;2.60;;;27.50;90.80;;;;;;4438405;32;20142;-73
2021/08/11 11:57:55;;;;;;;4.05;2.90;;;27.50;91.30;;;;;;4440073;32;20150;-73
2021/08/11 12:00:23;;;;;;;3.33;2.50;;;26.90;92.70;;;;;;4439334;32;20202;-73
2021/08/11 12:02:51;;;;;;;4.05;2.92;;;27.20;92.90;;;;;;4439598;32;20376;-73
2021/08/11 12:05:20;;;;;;;4.22;3.00;;;26.50;92.80;;;;;;4439346;32;20169;-72
2021/08/11 12:07:47;;;;;;;5.40;2.83;;;26.60;92.70;;;;;;4438803;32;20153;-72
2021/08/11 12:10:23;;;;;;;5.25;2.62;;;26.50;91.20;;;;;;4438849;32;20123;-72
2021/08/11 12:13:09;;;;;;;4.55;2.60;;;26.40;91.60;;;;;;4439624;32;20472;-73
2021/08/11 12:15:41;;;;;;;4.07;2.70;;;26.90;93.10;;;;;;4438947;32;20122;-72
2021/08/11 12:18:22;;;;;;;3.83;2.40;;;26.70;91.10;;;;;;4440176;32;20130;-73
2021/08/11 12:20:52;;;;;;;3.62;2.30;;;27.00;91.60;;;;;;4440156;32;20130;-72
2021/08/11 12:23:27;;;;;;;2.53;2.33;;;28.00;91.50;;;;;;4439771;32;20127;-73
2021/08/11 12:26:02;;;;;;;3.35;2.30;;;29.00;89.00;;;;;;4440091;32;20389;-73
2021/08/11 12:28:33;;;;;;;3.08;2.33;;;30.00;85.00;;;;;;4437059;32;20166;-74
2021/08/11 12:31:23;;;;;;;3.47;2.30;;;30.90;80.50;;;;;;4439329;32;20415;-71
2021/08/11 12:33:52;;;;;;;2.90;2.35;;;31.20;74.00;;;;;;4440153;32;20126;-72
2021/08/11 12:36:23;;;;;;;5.75;2.62;;;30.90;75.00;;;;;;4439708;32;20469;-72
2021/08/11 12:39:11;;;;;;;2.62;1.98;;;30.40;73.60;;;;;;4439393;32;20218;-72
2021/08/11 12:41:42;;;;;;;3.08;2.22;;;30.50;74.60;;;;;;4439338;32;20154;-70
2021/08/11 12:44:22;;;;;;;2.80;2.30;;;29.30;74.00;;;;;;4437664;32;20158;-71
2021/08/11 12:47:03;;;;;;;3.75;2.50;;;28.80;75.90;;;;;;4438806;32;20131;-71
2021/08/11 12:49:38;;;;;;;4.25;2.30;;;29.40;74.80;;;;;;4440321;32;20139;-72